createdAt,value
2022-12-12T00:00:41.884Z,19.40
2022-12-12T00:03:09.633Z,18.10
2022-12-12T00:05:37.429Z,18.38
2022-12-12T00:08:05.169Z,16.42
2022-12-12T00:10:32.921Z,17.35
2022-12-12T00:13:00.622Z,19.70
2022-12-12T00:15:28.756Z,16.95
2022-12-12T00:17:56.495Z,20.23
2022-12-12T00:20:24.114Z,17.90
2022-12-12T00:22:51.773Z,18.67
2022-12-12T00:25:19.479Z,19.65
2022-12-12T00:27:47.261Z,19.48
2022-12-12T00:30:14.889Z,19.83
2022-12-12T00:32:42.532Z,19.97
2022-12-12T00:35:10.636Z,18.75
2022-12-12T00:37:38.574Z,17.65
2022-12-12T00:40:06.570Z,18.02
2022-12-12T00:42:34.256Z,19.58
2022-12-12T00:45:03.056Z,16.20
2022-12-12T00:47:30.768Z,19.42
2022-12-12T00:49:58.443Z,18.77
2022-12-12T00:52:26.131Z,16.92
2022-12-12T00:54:53.808Z,19.60
2022-12-12T00:57:21.476Z,15.82
2022-12-12T00:59:49.056Z,18.63
2022-12-12T01:02:16.687Z,17.70
2022-12-12T01:04:44.354Z,15.75
2022-12-12T01:07:11.978Z,19.52
2022-12-12T01:09:39.584Z,16.70
2022-12-12T01:12:07.280Z,17.55
2022-12-12T01:14:34.912Z,17.13
2022-12-12T01:17:02.697Z,17.25
2022-12-12T01:19:30.357Z,16.35
2022-12-12T01:21:57.989Z,18.67
2022-12-12T01:24:25.622Z,18.17
2022-12-12T01:26:53.323Z,16.52
2022-12-12T01:29:20.972Z,14.10
2022-12-12T01:31:48.645Z,15.45
2022-12-12T01:34:17.133Z,15.73
2022-12-12T01:36:44.807Z,11.45
2022-12-12T01:39:12.443Z,12.57
2022-12-12T01:41:40.125Z,10.30
2022-12-12T01:44:27.724Z,11.98
2022-12-12T01:46:55.379Z,12.32
2022-12-12T01:49:27.287Z,8.35
2022-12-12T01:52:01.475Z,9.25
2022-12-12T01:54:31.584Z,8.98
2022-12-12T01:57:00.738Z,6.47
2022-12-12T01:59:29.046Z,6.68
2022-12-12T02:01:57.121Z,8.10
2022-12-12T02:04:25.776Z,7.18
2022-12-12T02:06:53.711Z,6.17
2022-12-12T02:09:21.957Z,6.28
2022-12-12T02:11:50.740Z,9.23
2022-12-12T02:14:22.816Z,6.80
2022-12-12T02:17:13.583Z,5.38
2022-12-12T02:19:59.587Z,5.47
2022-12-12T02:22:27.187Z,5.22
2022-12-12T02:25:21.095Z,8.65
2022-12-12T02:28:05.801Z,6.97
2022-12-12T02:30:41.534Z,6.65
2022-12-12T02:33:09.201Z,7.10
2022-12-12T02:35:42.843Z,9.70
2022-12-12T02:38:10.473Z,10.45
2022-12-12T02:40:42.741Z,9.02
2022-12-12T02:43:29.022Z,7.95
2022-12-12T02:46:08.303Z,7.32
2022-12-12T02:49:11.533Z,7.47
2022-12-12T02:51:39.661Z,9.55
2022-12-12T02:54:14.081Z,7.47
2022-12-12T02:56:53.360Z,7.72
2022-12-12T02:59:29.907Z,9.38
2022-12-12T03:02:06.336Z,8.45
2022-12-12T03:05:12.000Z,7.50
2022-12-12T03:07:52.043Z,8.73
2022-12-12T03:10:38.373Z,8.63
2022-12-12T03:13:12.136Z,9.82
2022-12-12T03:15:58.727Z,10.32
2022-12-12T03:18:36.065Z,8.93
2022-12-12T03:21:09.140Z,10.95
2022-12-12T03:23:41.322Z,9.33
2022-12-12T03:26:18.400Z,12.25
2022-12-12T03:28:56.451Z,9.50
2022-12-12T03:31:25.956Z,9.25
2022-12-12T03:33:59.119Z,10.43
2022-12-12T03:36:46.396Z,9.43
2022-12-12T03:39:21.402Z,7.70
2022-12-12T03:41:55.005Z,9.13
2022-12-12T03:44:29.869Z,9.02
2022-12-12T03:47:01.392Z,10.03
2022-12-12T03:49:41.482Z,9.73
2022-12-12T03:52:12.052Z,9.15
2022-12-12T03:54:46.010Z,9.93
2022-12-12T03:57:17.649Z,9.27
2022-12-12T04:00:05.914Z,8.65
2022-12-12T04:02:52.256Z,8.02
2022-12-12T04:05:29.335Z,8.45
2022-12-12T04:08:12.603Z,8.88
2022-12-12T04:11:03.748Z,10.40
2022-12-12T04:13:33.776Z,12.45
2022-12-12T04:16:12.742Z,9.90
2022-12-12T04:18:55.673Z,12.27
2022-12-12T04:21:44.560Z,12.43
2022-12-12T04:24:21.422Z,14.55
2022-12-12T04:26:52.965Z,17.20
2022-12-12T04:29:26.857Z,14.85
2022-12-12T04:31:57.579Z,16.38
2022-12-12T04:34:29.039Z,15.52
2022-12-12T04:36:56.812Z,14.57
2022-12-12T04:39:25.612Z,18.52
2022-12-12T04:41:54.744Z,18.00
2022-12-12T04:44:23.724Z,17.10
2022-12-12T04:46:52.776Z,16.38
2022-12-12T04:49:23.381Z,17.23
2022-12-12T04:51:53.668Z,16.05
2022-12-12T04:54:30.824Z,18.70
2022-12-12T04:57:00.698Z,16.77
2022-12-12T04:59:29.069Z,18.57
2022-12-12T05:02:05.722Z,16.05
2022-12-12T05:04:59.780Z,18.58
2022-12-12T05:07:39.285Z,19.20
2022-12-12T05:10:08.624Z,16.20
2022-12-12T05:12:47.043Z,16.58
2022-12-12T05:15:15.981Z,13.75
2022-12-12T05:17:48.567Z,15.95
2022-12-12T05:20:16.748Z,17.27
2022-12-12T05:22:44.371Z,16.77
2022-12-12T05:25:12.351Z,17.15
2022-12-12T05:27:40.247Z,17.05
2022-12-12T05:30:08.432Z,16.48
2022-12-12T05:32:36.318Z,19.70
2022-12-12T05:35:03.993Z,15.10
2022-12-12T05:37:31.646Z,15.30
2022-12-12T05:40:00.016Z,13.48
2022-12-12T05:42:27.669Z,16.15
2022-12-12T05:44:54.909Z,16.27
2022-12-12T05:47:22.378Z,17.60
2022-12-12T05:49:49.726Z,14.63
2022-12-12T05:52:17.211Z,15.50
2022-12-12T05:54:44.571Z,17.95
2022-12-12T05:57:11.984Z,16.17
2022-12-12T05:59:39.237Z,18.45
2022-12-12T06:02:06.639Z,15.98
2022-12-12T06:04:34.005Z,15.15
2022-12-12T06:07:01.383Z,15.98
2022-12-12T06:09:28.836Z,16.27
2022-12-12T06:11:56.230Z,15.68
2022-12-12T06:14:23.710Z,17.52
2022-12-12T06:16:51.253Z,17.63
2022-12-12T06:19:20.076Z,14.98
2022-12-12T06:21:47.841Z,16.45
2022-12-12T06:24:15.245Z,15.50
2022-12-12T06:26:42.621Z,16.45
2022-12-12T06:29:10.112Z,15.93
2022-12-12T06:31:37.561Z,16.08
2022-12-12T06:34:04.922Z,16.35
2022-12-12T06:36:32.289Z,15.90
2022-12-12T06:39:01.354Z,15.35
2022-12-12T06:41:31.202Z,15.57
2022-12-12T06:43:58.743Z,18.80
2022-12-12T06:46:28.032Z,15.25
2022-12-12T06:48:56.401Z,17.05
2022-12-12T06:51:25.528Z,16.50
2022-12-12T06:53:53.275Z,17.27
2022-12-12T06:56:22.544Z,16.70
2022-12-12T06:58:50.514Z,16.73
2022-12-12T07:01:19.531Z,19.45
2022-12-12T07:03:47.350Z,14.30
2022-12-12T07:06:15.005Z,16.00
2022-12-12T07:08:42.655Z,16.10
2022-12-12T07:11:18.503Z,17.33
2022-12-12T07:13:46.195Z,16.10
2022-12-12T07:16:13.941Z,16.80
2022-12-12T07:18:42.024Z,17.48
2022-12-12T07:21:11.865Z,19.00
2022-12-12T07:23:39.818Z,21.65
2022-12-12T07:26:09.452Z,16.85
2022-12-12T07:28:38.290Z,21.55
2022-12-12T07:31:07.069Z,19.25
2022-12-12T07:33:42.996Z,21.67
2022-12-12T07:36:12.399Z,19.90
2022-12-12T07:38:40.205Z,21.58
2022-12-12T07:41:09.458Z,21.83
2022-12-12T07:43:41.498Z,19.92
2022-12-12T07:46:12.639Z,18.83
2022-12-12T07:48:40.327Z,19.45
2022-12-12T07:51:07.952Z,19.10
2022-12-12T07:53:35.640Z,21.00
2022-12-12T07:56:05.664Z,17.10
2022-12-12T07:58:33.292Z,18.63
2022-12-12T08:01:00.943Z,17.25
2022-12-12T08:03:29.400Z,20.05
2022-12-12T08:05:57.023Z,15.50
2022-12-12T08:08:24.709Z,18.27
2022-12-12T08:10:52.324Z,18.03
2022-12-12T08:13:19.986Z,16.25
2022-12-12T08:15:47.649Z,20.73
2022-12-12T08:18:15.384Z,18.33
2022-12-12T08:20:43.047Z,17.65
2022-12-12T08:23:11.273Z,19.98
2022-12-12T08:25:38.946Z,18.52
2022-12-12T08:28:06.667Z,18.73
2022-12-12T08:30:34.359Z,21.50
2022-12-12T08:33:07.806Z,21.80
2022-12-12T08:35:36.093Z,17.92
2022-12-12T08:38:04.195Z,18.95
2022-12-12T08:40:31.841Z,24.17
2022-12-12T08:42:59.543Z,16.97
2022-12-12T08:45:27.201Z,19.60
2022-12-12T08:47:55.106Z,19.70
2022-12-12T08:50:22.784Z,18.17
2022-12-12T08:52:50.418Z,19.60
2022-12-12T08:55:18.197Z,21.75
2022-12-12T08:57:46.012Z,24.02
2022-12-12T09:00:13.865Z,20.63
2022-12-12T09:02:41.646Z,20.67
2022-12-12T09:05:09.490Z,22.02
2022-12-12T09:07:37.631Z,20.83
2022-12-12T09:10:06.354Z,22.50
2022-12-12T09:12:38.389Z,24.20
2022-12-12T09:15:09.798Z,24.60
2022-12-12T09:17:37.643Z,23.93
2022-12-12T09:20:05.546Z,30.50
2022-12-12T09:22:33.324Z,29.67
2022-12-12T09:25:01.051Z,28.75
2022-12-12T09:27:28.699Z,30.50
2022-12-12T09:29:56.517Z,30.08
2022-12-12T09:32:24.935Z,29.23
2022-12-12T09:34:52.936Z,30.93
2022-12-12T09:37:20.654Z,28.63
2022-12-12T09:39:48.336Z,27.63
2022-12-12T09:42:26.432Z,27.40
2022-12-12T09:44:56.500Z,34.70
2022-12-12T09:47:32.457Z,31.60
2022-12-12T09:50:02.542Z,32.25
2022-12-12T09:52:35.265Z,36.28
2022-12-12T09:55:07.082Z,38.85
2022-12-12T09:57:45.908Z,37.95
2022-12-12T10:00:15.773Z,40.50
2022-12-12T10:02:53.608Z,38.08
2022-12-12T10:05:32.448Z,40.10
2022-12-12T10:08:06.558Z,39.10
2022-12-12T10:10:35.935Z,37.75
2022-12-12T10:13:04.788Z,41.05
2022-12-12T10:15:37.991Z,39.90
2022-12-12T10:18:13.234Z,40.08
2022-12-12T10:20:51.614Z,35.85
2022-12-12T10:23:22.576Z,38.25
2022-12-12T10:26:02.032Z,34.00
2022-12-12T10:28:32.216Z,37.10
2022-12-12T10:31:03.113Z,35.30
2022-12-12T10:33:49.620Z,33.25
2022-12-12T10:36:35.926Z,34.22
2022-12-12T10:39:16.972Z,33.90
2022-12-12T10:41:44.711Z,35.50
2022-12-12T10:44:24.319Z,34.30
2022-12-12T10:47:04.293Z,29.38
2022-12-12T10:49:32.297Z,29.55
2022-12-12T10:52:02.689Z,29.57
2022-12-12T10:54:32.680Z,33.67
2022-12-12T10:57:19.805Z,29.65
2022-12-12T10:59:49.682Z,31.17
2022-12-12T11:02:23.737Z,32.60
2022-12-12T11:04:58.131Z,28.98
2022-12-12T11:07:26.144Z,27.73
2022-12-12T11:10:01.825Z,31.70
2022-12-12T11:12:34.258Z,28.23
2022-12-12T11:15:06.901Z,31.05
2022-12-12T11:17:35.474Z,32.13
2022-12-12T11:20:07.500Z,34.22
2022-12-12T11:22:35.412Z,31.23
2022-12-12T11:25:02.750Z,31.70
2022-12-12T11:27:39.434Z,31.75
2022-12-12T11:30:21.428Z,30.13
2022-12-12T11:32:50.095Z,32.20
2022-12-12T11:35:25.877Z,29.85
2022-12-12T11:37:57.658Z,31.00
2022-12-12T11:40:31.918Z,32.63
2022-12-12T11:43:31.274Z,29.30
2022-12-12T11:46:03.566Z,31.17
2022-12-12T11:48:48.941Z,28.95
2022-12-12T11:51:33.890Z,31.13
2022-12-12T11:54:19.153Z,28.25
2022-12-12T11:56:50.039Z,30.00
2022-12-12T11:59:59.144Z,29.08
2022-12-12T12:02:32.149Z,28.20
2022-12-12T12:05:14.504Z,28.10
2022-12-12T12:08:10.424Z,29.80
2022-12-12T12:11:09.684Z,31.42
2022-12-12T12:14:17.939Z,27.95
2022-12-12T12:17:20.315Z,29.20
2022-12-12T12:20:18.505Z,27.75
2022-12-12T12:23:05.189Z,28.08
2022-12-12T12:26:02.619Z,28.30
2022-12-12T12:28:54.577Z,28.25
2022-12-12T12:31:37.047Z,23.73
2022-12-12T12:34:25.018Z,24.98
2022-12-12T12:37:07.563Z,27.02
2022-12-12T12:39:58.932Z,24.60
2022-12-12T12:42:29.121Z,30.33
2022-12-12T12:45:45.744Z,31.52
2022-12-12T12:48:28.869Z,33.53
2022-12-12T12:50:56.121Z,34.42
2022-12-12T12:53:38.951Z,33.05
2022-12-12T12:56:28.837Z,32.45
2022-12-12T12:59:00.945Z,32.70
2022-12-12T13:01:36.785Z,38.03
2022-12-12T13:04:23.415Z,42.78
2022-12-12T13:06:59.771Z,33.78
2022-12-12T13:09:46.788Z,33.55
2022-12-12T13:12:26.372Z,39.83
2022-12-12T13:15:02.017Z,40.20
2022-12-12T13:17:59.145Z,32.58
2022-12-12T13:20:27.308Z,33.58
2022-12-12T13:23:06.959Z,35.70
2022-12-12T13:25:58.212Z,31.38
2022-12-12T13:28:31.668Z,31.23
2022-12-12T13:31:13.064Z,31.08
2022-12-12T13:33:47.192Z,34.03
2022-12-12T13:36:15.626Z,34.50
2022-12-12T13:38:47.412Z,31.40
2022-12-12T13:41:15.314Z,28.80
2022-12-12T13:43:47.150Z,30.58
2022-12-12T13:46:24.410Z,30.30
2022-12-12T13:49:07.901Z,30.63
2022-12-12T13:51:37.791Z,35.57
2022-12-12T13:54:13.064Z,33.25
2022-12-12T13:57:05.745Z,36.47
2022-12-12T13:59:54.719Z,32.00
2022-12-12T14:02:22.336Z,37.08
2022-12-12T14:05:06.577Z,31.80
2022-12-12T14:07:34.357Z,34.85
2022-12-12T14:10:14.317Z,33.13
2022-12-12T14:12:42.332Z,33.40
2022-12-12T14:15:20.796Z,37.00
2022-12-12T14:17:53.253Z,35.65
2022-12-12T14:20:32.476Z,31.80
2022-12-12T14:23:00.088Z,29.92
2022-12-12T14:25:33.713Z,30.10
2022-12-12T14:28:03.169Z,38.03
2022-12-12T14:30:42.979Z,35.00
2022-12-12T14:33:16.635Z,39.42
2022-12-12T14:35:49.020Z,42.30
2022-12-12T14:38:38.028Z,41.75
2022-12-12T14:41:11.125Z,43.67
2022-12-12T14:43:43.161Z,39.90
2022-12-12T14:46:18.204Z,42.95
2022-12-12T14:48:45.919Z,35.70
2022-12-12T14:51:17.756Z,41.15
2022-12-12T14:53:52.801Z,42.92
2022-12-12T14:56:20.424Z,43.15
2022-12-12T14:58:48.114Z,37.65
2022-12-12T15:01:18.370Z,40.13
2022-12-12T15:03:47.862Z,40.00
2022-12-12T15:06:24.883Z,35.15
2022-12-12T15:08:53.036Z,33.73
2022-12-12T15:11:23.545Z,38.15
2022-12-12T15:13:52.473Z,32.67
2022-12-12T15:16:20.900Z,34.88
2022-12-12T15:18:49.135Z,32.08
2022-12-12T15:21:19.987Z,37.38
2022-12-12T15:23:47.694Z,38.30
2022-12-12T15:26:17.347Z,34.63
2022-12-12T15:28:46.117Z,34.57
2022-12-12T15:31:15.537Z,32.47
2022-12-12T15:33:43.312Z,35.25
2022-12-12T15:36:40.258Z,32.43
2022-12-12T15:39:17.200Z,30.30
2022-12-12T15:41:45.294Z,33.70
2022-12-12T15:44:17.698Z,36.60
2022-12-12T15:46:46.401Z,37.40
2022-12-12T15:49:38.411Z,40.35
2022-12-12T15:52:26.929Z,34.05
2022-12-12T15:54:56.091Z,41.63
2022-12-12T15:57:29.460Z,32.58
2022-12-12T15:59:58.931Z,37.50
2022-12-12T16:02:28.694Z,40.95
2022-12-12T16:05:05.416Z,45.63
2022-12-12T16:07:37.640Z,39.53
2022-12-12T16:10:19.918Z,39.97
2022-12-12T16:13:07.024Z,37.20
2022-12-12T16:15:38.132Z,39.67
2022-12-12T16:18:17.907Z,37.88
2022-12-12T16:20:50.210Z,42.03
2022-12-12T16:23:20.765Z,42.97
2022-12-12T16:25:49.495Z,43.25
2022-12-12T16:28:25.641Z,47.10
2022-12-12T16:30:55.797Z,40.70
2022-12-12T16:33:26.668Z,42.97
2022-12-12T16:35:54.934Z,41.22
2022-12-12T16:38:22.675Z,38.25
2022-12-12T16:40:51.951Z,41.00
2022-12-12T16:43:20.697Z,41.67
2022-12-12T16:45:52.570Z,37.83
2022-12-12T16:48:21.909Z,42.97
2022-12-12T16:50:50.485Z,36.10
2022-12-12T16:53:18.585Z,40.23
2022-12-12T16:55:47.331Z,40.00
2022-12-12T16:58:15.129Z,37.78
2022-12-12T17:00:43.397Z,37.17
2022-12-12T17:03:14.939Z,35.95
2022-12-12T17:05:43.914Z,32.92
2022-12-12T17:08:11.542Z,35.10
2022-12-12T17:10:39.568Z,44.00
2022-12-12T17:13:08.437Z,39.67
2022-12-12T17:15:36.136Z,36.38
2022-12-12T17:18:04.287Z,37.72
2022-12-12T17:20:37.779Z,40.60
2022-12-12T17:25:53.645Z,37.42
2022-12-12T17:28:23.396Z,37.42
2022-12-12T17:30:51.251Z,38.63
2022-12-12T17:33:19.186Z,39.45
2022-12-12T17:35:46.836Z,38.85
2022-12-12T17:38:16.381Z,38.85
2022-12-12T17:40:44.636Z,36.90
2022-12-12T17:43:12.294Z,42.30
2022-12-12T17:45:40.068Z,39.88
2022-12-12T17:48:07.802Z,42.40
2022-12-12T17:50:41.302Z,42.22
2022-12-12T17:53:09.515Z,42.83
2022-12-12T17:55:54.930Z,36.92
2022-12-12T17:58:32.120Z,38.85
2022-12-12T18:00:59.783Z,44.80
2022-12-12T18:03:27.526Z,42.80
2022-12-12T18:05:55.106Z,41.57
2022-12-12T18:08:22.721Z,46.80
2022-12-12T18:10:50.595Z,41.35
2022-12-12T18:13:18.226Z,36.30
2022-12-12T18:15:45.920Z,44.90
2022-12-12T18:18:13.508Z,44.83
2022-12-12T18:20:41.193Z,43.13
2022-12-12T18:23:08.965Z,46.45
2022-12-12T18:25:37.560Z,48.03
2022-12-12T18:28:05.254Z,42.22
2022-12-12T18:30:32.871Z,42.00
2022-12-12T18:33:03.186Z,35.72
2022-12-12T18:35:31.263Z,46.95
2022-12-12T18:37:58.887Z,36.42
2022-12-12T18:40:26.489Z,44.35
2022-12-12T18:42:54.167Z,40.92
2022-12-12T18:45:21.846Z,43.10
2022-12-12T18:47:49.501Z,38.25
2022-12-12T18:50:17.209Z,44.92
2022-12-12T18:52:44.849Z,43.88
2022-12-12T18:55:12.957Z,40.60
2022-12-12T18:57:41.712Z,42.33
2022-12-12T19:00:10.223Z,48.75
2022-12-12T19:02:40.501Z,44.00
2022-12-12T19:05:13.281Z,44.15
2022-12-12T19:07:41.435Z,54.55
2022-12-12T19:10:09.298Z,44.70
2022-12-12T19:12:37.278Z,55.78
2022-12-12T19:15:16.612Z,50.60
2022-12-12T19:17:44.920Z,48.22
2022-12-12T19:20:13.085Z,44.65
2022-12-12T19:22:45.552Z,50.08
2022-12-12T19:25:15.515Z,40.92
2022-12-12T19:27:43.173Z,45.85
2022-12-12T19:30:12.536Z,47.47
2022-12-12T19:32:40.592Z,46.95
2022-12-12T19:35:08.511Z,40.90
2022-12-12T19:37:37.179Z,53.72
2022-12-12T19:40:04.954Z,43.10
2022-12-12T19:42:32.625Z,41.47
2022-12-12T19:45:00.289Z,35.90
2022-12-12T19:47:27.960Z,45.95
2022-12-12T19:49:55.599Z,40.72
2022-12-12T19:52:23.327Z,34.08
2022-12-12T19:54:50.932Z,37.70
2022-12-12T19:57:18.552Z,43.05
2022-12-12T19:59:46.203Z,37.38
2022-12-12T20:02:13.927Z,39.25
2022-12-12T20:04:42.426Z,44.55
2022-12-12T20:07:10.071Z,37.45
2022-12-12T20:09:37.721Z,41.10
2022-12-12T20:12:05.564Z,37.03
2022-12-12T20:14:33.800Z,38.97
2022-12-12T20:17:02.977Z,37.30
2022-12-12T20:19:30.755Z,36.65
2022-12-12T20:22:01.782Z,33.33
2022-12-12T20:24:30.530Z,33.25
2022-12-12T20:26:59.761Z,34.92
2022-12-12T20:29:27.752Z,39.08
2022-12-12T20:31:55.515Z,40.55
2022-12-12T20:34:24.921Z,35.95
2022-12-12T20:36:55.491Z,31.08
2022-12-12T20:39:24.886Z,50.90
2022-12-12T20:41:53.726Z,33.40
2022-12-12T20:44:23.326Z,38.17
2022-12-12T20:46:51.041Z,36.33
2022-12-12T20:49:22.068Z,35.67
2022-12-12T20:51:58.245Z,41.38
2022-12-12T20:54:27.367Z,41.58
2022-12-12T20:56:55.356Z,35.80
2022-12-12T20:59:23.866Z,36.35
2022-12-12T21:01:52.255Z,31.45
2022-12-12T21:04:20.904Z,37.50
2022-12-12T21:06:49.890Z,38.72
2022-12-12T21:09:23.972Z,42.35
2022-12-12T21:11:53.984Z,38.35
2022-12-12T21:14:21.861Z,30.83
2022-12-12T21:16:49.454Z,34.67
2022-12-12T21:19:18.981Z,32.38
2022-12-12T21:21:46.909Z,29.38
2022-12-12T21:24:15.409Z,35.92
2022-12-12T21:26:43.570Z,39.47
2022-12-12T21:29:11.304Z,41.17
2022-12-12T21:31:48.213Z,36.08
2022-12-12T21:34:18.694Z,40.60
2022-12-12T21:36:46.461Z,31.58
2022-12-12T21:39:14.152Z,29.08
2022-12-12T21:41:43.926Z,38.47
2022-12-12T21:44:11.947Z,31.02
2022-12-12T21:46:41.965Z,34.75
2022-12-12T21:49:28.563Z,38.25
2022-12-12T21:51:57.341Z,31.08
2022-12-12T21:54:25.058Z,29.05
2022-12-12T21:56:53.227Z,31.48
2022-12-12T21:59:20.942Z,33.35
2022-12-12T22:01:48.596Z,33.45
2022-12-12T22:04:16.369Z,30.00
2022-12-12T22:06:45.139Z,33.42
2022-12-12T22:09:13.418Z,30.55
2022-12-12T22:11:48.322Z,27.27
2022-12-12T22:14:17.851Z,26.98
2022-12-12T22:16:45.569Z,22.05
2022-12-12T22:19:14.588Z,29.42
2022-12-12T22:21:42.452Z,23.75
2022-12-12T22:24:11.503Z,29.08
2022-12-12T22:26:40.430Z,27.70
2022-12-12T22:29:12.862Z,20.40
2022-12-12T22:31:41.728Z,28.55
2022-12-12T22:34:15.547Z,25.20
2022-12-12T22:36:43.651Z,23.52
2022-12-12T22:39:14.238Z,25.23
2022-12-12T22:41:41.915Z,27.05
2022-12-12T22:44:13.104Z,24.10
2022-12-12T22:46:43.842Z,26.30
2022-12-12T22:49:13.261Z,24.63
2022-12-12T22:51:41.048Z,29.20
2022-12-12T22:54:08.658Z,25.90
2022-12-12T22:56:37.097Z,26.13
2022-12-12T22:59:05.388Z,25.42
2022-12-12T23:01:33.265Z,24.52
2022-12-12T23:04:01.289Z,25.20
2022-12-12T23:06:31.147Z,26.35
2022-12-12T23:09:00.695Z,26.70
2022-12-12T23:11:29.611Z,22.38
2022-12-12T23:14:00.394Z,22.38
2022-12-12T23:16:30.681Z,26.27
2022-12-12T23:18:59.143Z,24.40
2022-12-12T23:21:27.344Z,20.98
2022-12-12T23:23:55.670Z,23.73
2022-12-12T23:26:24.507Z,21.40
2022-12-12T23:28:52.240Z,20.38
2022-12-12T23:31:24.736Z,21.52
2022-12-12T23:33:56.613Z,21.85
2022-12-12T23:36:24.525Z,20.25
2022-12-12T23:38:58.595Z,22.00
2022-12-12T23:41:26.293Z,20.45
2022-12-12T23:43:54.423Z,22.92
2022-12-12T23:46:28.717Z,20.95
2022-12-12T23:48:57.351Z,16.95
2022-12-12T23:51:25.650Z,20.58
2022-12-12T23:53:55.419Z,19.42
2022-12-12T23:56:23.227Z,16.42
2022-12-12T23:58:52.242Z,19.55
